Airport View

Enter AWOS ICAO identifier for current METAR.

ex. KFNL

KPSO 250545Z AUTO 00000KT 10SM CLR 01/M04 A3020 RMK AO2 T00051039

25 Nov 2017 05:47

Frequency: 127.175

Phone: 970-731-0365

Other Area AWOS: KCPW - KDRO - KRCV - KTEX

TAF KALS 242320Z 2500/2524 35009KT P6SM FEW200 FM250100 36008KT P6SM SCT200 FM250600 VRB06KT P6SM SKC